Fox Creek, Colorado
Current Conditions -  °F | °C
As of 7:52 AM on Thursday 30 Oct 2014 (Local Time) from KALS Reporting Station
Clear Clear  
Wind Chill: 15°   Ceiling: Unl
Heat Index: 21°   Visibility: 10mi
Dew Point: 12°   Wind: 5mph
Humidity: 68%   Direction: 280°W
Pressure: 30.41"   Gusts: NA
Location:  37.1816°N, 106.262°W
Report Text: KALS 301352Z AUTO 28004KT 10SM CLR M06/M11 A3041 RMK AO2 SLP305 T10611111
Loading
Personal Weather Stations






























Interactive Weather Map
Tropical Storm Tracking
New forecast layout! Learn more

10-Day Weather Forecast

Advertisements
Track Severe Weather on mobile